Flight Track Log - Related Links

Times and Time Zones

All times are in EDT time to prevent confusion due to time zone crossing. See the CES5522 flight status page for this flight to view local times or setup timezone preferences in your user account.

Time Position Orientation Groundspeed Altitude Reporting Facility
EDT Latitude Longitude Course Direction KTS MPH feet Rate Location/Type
Sun 08:49:00 AM 34.8282 120.7904 167° South  Level Estimated
Sun 08:50:00 AM 34.7383 120.8159 167° South  Level Estimated
Sun 08:51:00 AM 34.6483 120.8413 167° South  Level Estimated
Sun 08:52:00 AM 34.5584 120.8667 167° South  Level Estimated
Sun 08:53:00 AM 34.4685 120.8921 167° South  Level Estimated
Sun 08:54:00 AM 34.3785 120.9174 167° South  Level Estimated
Sun 08:55:00 AM 34.2886 120.9426 167° South  Level Estimated
Sun 08:56:00 AM 34.1986 120.9678 167° South  Level Estimated
Sun 08:57:00 AM 34.1087 120.9929 167° South  Level Estimated
Sun 08:58:00 AM 34.0187 121.0180 167° South  Level Estimated
Sun 08:59:00 AM 33.9288 121.0430 167° South  Level Estimated
Sun 09:00:00 AM 33.8388 121.0679 167° South  Level Estimated
Sun 09:01:00 AM 33.7488 121.0929 167° South  Level Estimated
Sun 09:02:00 AM 33.6589 121.1177 167° South  Level Estimated
Sun 09:03:00 AM 33.5689 121.1425 167° South  Level Estimated
Sun 09:04:00 AM 33.4789 121.1673 167° South  Level Estimated
Sun 09:05:00 AM 33.3889 121.1920 167° South  Level Estimated
Sun 09:06:00 AM 33.2989 121.2167 167° South  Level Estimated
Sun 09:07:00 AM 33.2089 121.2413 167° South  Level Estimated
Sun 09:08:00 AM 33.1189 121.2658 167° South  Level Estimated
Sun 09:09:00 AM 33.0289 121.2903 167° South  Level Estimated
Sun 09:10:00 AM 32.9389 121.3148 167° South  Level Estimated
Sun 09:11:00 AM 32.8488 121.3392 167° South  Level Estimated
Sun 09:12:00 AM 32.7588 121.3635 167° South  Level Estimated
Sun 09:13:00 AM 32.6688 121.3878 167° South  Level Estimated
Sun 09:14:00 AM 32.5787 121.4121 167° South  Level Estimated
Sun 09:15:00 AM 32.4887 121.4363 167° South  Level Estimated
Sun 09:16:00 AM 32.3986 121.4604 167° South  Level Estimated
Sun 09:17:00 AM 32.3086 121.4846 167° South  Level Estimated
Sun 09:18:00 AM 32.2185 121.5086 167° South  Level Estimated
Sun 09:19:00 AM 32.1285 121.5326 167° South  Level Estimated
Sun 09:20:00 AM 32.0384 121.5566 167° South  Level Estimated
Sun 09:21:00 AM 31.9483 121.5805 167° South  Level Estimated
Sun 09:22:00 AM 31.8583 121.6044 167° South  Level Estimated
Sun 09:23:00 AM 31.7682 121.6282 167° South  Level Estimated
Sun 09:24:00 AM 31.6781 121.6520 167° South  Level Estimated
Sun 09:25:00 AM 31.5880 121.6758 167° South  Level Estimated
Sun 09:26:00 AM 31.4979 121.6994 167° South  Level Estimated
Sun 09:27:00 AM 31.4078 121.7231 167° South  Level Estimated
Sun 09:28:00 AM 31.3177 121.7467 167° South  Level Estimated
Sun 09:29:00 AM 31.2276 121.7702 167° South  Level Estimated
Sun 09:30:00 AM 31.1428 121.7924 167° South  Level Estimated
Sun 09:31:00 AM 31.1428 121.7924 221° Southwest  Level Estimated
Sun 09:32:00 AM 31.1428 121.7924 221° Southwest  Level Estimated
Sun 09:33:00 AM 31.1428 121.7924 221° Southwest  Level Estimated
Sun 09:34:00 AM 31.1428 121.7924 221° Southwest  Level Estimated
Sun 09:35:00 AM 31.1428 121.7924 221° Southwest  Level Estimated
Sun 09:36:00 AM 31.1428 121.7924 221° Southwest  Level Estimated
Sun 09:37:00 AM 31.1428 121.7924 221° Southwest  Level Estimated
Sun 09:38:00 AM 31.1428 121.7924 221° Southwest  Level Estimated
Sun 09:39:00 AM 31.1428 121.7924 221° Southwest  Level Estimated
Sun 09:40:00 AM 31.1428 121.7924 221° Southwest  Level Estimated
Sun 09:41:00 AM 31.1428 121.7924 221° Southwest  Level Estimated
Sun 09:42:00 AM 31.1428 121.7924 221° Southwest  Level Estimated
Sun 09:43:00 AM 31.1428 121.7924 221° Southwest  Level Estimated
Sun 09:44:00 AM 31.1428 121.7924 221° Southwest  Level Estimated
Sun 09:45:00 AM 31.1428 121.7924 221° Southwest  Level Estimated
Sun 09:46:00 AM 31.1428 121.7924 221° Southwest  Level Estimated

Login

Don't have an account? Register now (free) for customized features, flight alerts, and more!